Language selection

My Weather Profile Weather Topics  | 

Pacific - North Coast: Past 24 Hour Conditions

 

Bella Bella Airport

08:00 PM PDT 22 June 2021
Disclaimer

This table is a summary of hourly weather conditions for the past 24 hours.
Please note that these observations might not always be representative of weather conditions over their associated marine area.

Date / Time
(PDT)
Wind(knots) Conditions Visibility(km) Pressure(kPa) Air tempC) Relative humidity(%) Dew pointC) Humidex
22 June 2021
20:00 SW 5 Sunny 16 101.3 17 68 11 *
19:00 WSW 7 Sunny 16 101.3 18 62 10 *
18:00 WSW 6 Sunny 16 101.3 19 60 12 *
17:00 NW 7 Sunny 16 101.3 20 62 12 *
16:00 WNW 6 Sunny 16 101.3 20 63 13 23
15:00 WNW 3 Sunny 16 101.3 20 65 13 23
14:00 SSW 3 Mainly Sunny 16 101.3 19 70 14 *
13:00 NNW 8 Partly Cloudy 16 101.3 17 79 13 *
12:00 N 4 Cloudy 16 101.3 15 85 13 *
11:00 NNW 4 Cloudy 16 101.4 14 91 12 *
10:00 SW 2 Cloudy 16 101.4 13 96 13 *
9:00 SE 2 Mist 10 101.3 13 98 13 *
8:00 WSW 2 Cloudy 11 101.3 12 99 12 *
7:00 calm Cloudy 16 101.3 12 99 12 *
6:00 calm Mist 1 101.3 11 99 11 *
5:00 S 2 Fog 0.4 101.3 11 99 11 *
4:00 calm Clear 16 101.3 10 96 10 *
3:00 calm Clear 16 101.3 11 96 10 *
2:00 calm Clear 16 101.3 11 95 10 *
1:00 calm Clear 16 101.4 13 91 12 *
0:00 SSE 2 Clear 16 101.4 13 95 12 *
21 June 2021
23:00 calm Clear 16 101.4 14 94 13 *
22:00 W 3 Clear 16 101.4 16 83 13 *
21:00 SW 3 Sunny 16 101.4 18 77 14 *
20:00 WNW 4 Sunny 16 101.4 20 70 14 *

Zoom-in to make a selection

Map of Pacific - North Coast marine weather areas Middle Nomad - 46004 South Nomad - 46036 Dixon Entrance Central - 46145 South Moresby - 46147 Nanakwa Shoal - 46181 North Hecate Strait - 46183 North Nomad - 46184 South Hecate Strait - 46185 West Sea Otter - 46204 West Dixon Entrance - 46205 East Dellwood - 46207 West Moresby - 46208 Sartine Island Cape St.James Kindakun Rocks Langara Island Masset Municipal Airport Rose Spit Sandspit Airport Bella Bella Airport Bella Coola Airport Bonilla Island Cathedral Point Cumshewa Island Grey Islet Holland Rock Lucy Islands Lightstation Prince Rupert Airport
Legend:
buoy Buoy
land station Land Station

Pacific - North Coast Area

Another Region

What we are doing

Date modified: